Time;durP1;ratioP1;P1;durP2;ratioP2;P2;SDS_P1;SDS_P2;PMS_P1;PMS_P2;Temp;Humidity;BMP_temperature;BMP_pressure;BME280_temperature;BME280_humidity;BME280_pressure;Samples;Min_cycle;Max_cycle;Signal;HPM_P1;HPM_P2
2023/04/02 00:00:49;;;;;;;;;;;;;;;;;;5003944;28;19914;-81
2023/04/02 00:03:35;;;;;;;;;;;;;;;;;;5008016;28;19918;-81
2023/04/02 00:06:24;;;;;;;;;;;;;;;;;;4997283;28;19921;-81
2023/04/02 00:09:11;;;;;;;;;;;;;;;;;;5003138;28;19933;-80
2023/04/02 00:11:59;;;;;;;;;;;;;;;;;;5004920;28;19918;-81
2023/04/02 00:14:45;;;;;;;;;;;;;;;;;;5000943;28;19925;-81
2023/04/02 00:17:32;;;;;;;;;;;;;;;;;;4981276;28;20028;-81
2023/04/02 00:20:19;;;;;;;;;;;;;;;;;;4995652;28;19918;-81
2023/04/02 00:23:05;;;;;;;;;;;;;;;;;;5000366;28;19920;-81
2023/04/02 00:25:52;;;;;;;;;;;;;;;;;;5003801;28;19918;-81
2023/04/02 00:28:38;;;;;;;;;;;;;;;;;;5001196;28;19934;-81
2023/04/02 00:31:24;;;;;;;;;;;;;;;;;;4994222;28;19922;-81
2023/04/02 00:34:11;;;;;;;;;;;;;;;;;;5000158;28;19940;-81
2023/04/02 00:36:57;;;;;;;;;;;;;;;;;;5006550;28;19924;-81
2023/04/02 00:39:44;;;;;;;;;;;;;;;;;;5003811;28;19921;-82
2023/04/02 00:42:30;;;;;;;;;;;;;;;;;;4999447;28;19914;-81
2023/04/02 00:45:17;;;;;;;;;;;;;;;;;;5003463;28;19957;-80
2023/04/02 00:48:04;;;;;;;;;;;;;;;;;;4993134;28;19926;-80
2023/04/02 00:50:50;;;;;;;;;;;;;;;;;;5007195;28;20718;-80
2023/04/02 00:53:36;;;;;;;;;;;;;;;;;;4996778;28;19993;-80
2023/04/02 00:56:24;;;;;;;;;;;;;;;;;;5003265;28;19948;-80
2023/04/02 00:59:11;;;;;;;;;;;;;;;;;;5003901;28;20316;-80
2023/04/02 01:02:00;;;;;;;;;;;;;;;;;;5000250;28;19925;-81
2023/04/02 01:04:46;;;;;;;;;;;;;;;;;;5001714;28;19937;-81
2023/04/02 01:07:33;;;;;;;;;;;;;;;;;;5000521;28;19929;-81
2023/04/02 01:10:19;;;;;;;;;;;;;;;;;;4994196;28;20169;-81
2023/04/02 01:13:06;;;;;;;;;;;;;;;;;;4993122;28;19918;-81
2023/04/02 01:15:52;;;;;;;;;;;;;;;;;;4991123;28;19958;-81
2023/04/02 01:18:39;;;;;;;;;;;;;;;;;;5001276;28;19920;-81
2023/04/02 01:21:27;;;;;;;;;;;;;;;;;;5005028;28;19936;-82
2023/04/02 01:24:13;;;;;;;;;;;;;;;;;;5005844;28;19913;-82
2023/04/02 01:26:59;;;;;;;;;;;;;;;;;;5006390;28;20327;-82
2023/04/02 01:29:47;;;;;;;;;;;;;;;;;;4995677;28;19927;-82
2023/04/02 01:32:33;;;;;;;;;;;;;;;;;;4998957;28;19917;-82
2023/04/02 01:35:20;;;;;;;;;;;;;;;;;;4998324;28;20320;-80
2023/04/02 01:38:06;;;;;;;;;;;;;;;;;;4991188;28;19917;-80
2023/04/02 01:40:53;;;;;;;;;;;;;;;;;;5004625;28;19969;-78
2023/04/02 01:43:39;;;;;;;;;;;;;;;;;;5004466;28;19918;-79
2023/04/02 01:46:26;;;;;;;;;;;;;;;;;;5003677;28;19921;-80
2023/04/02 01:49:12;;;;;;;;;;;;;;;;;;4988881;28;19933;-79
2023/04/02 01:51:59;;;;;;;;;;;;;;;;;;5004432;28;19917;-79
2023/04/02 01:54:46;;;;;;;;;;;;;;;;;;4994304;28;20458;-80
2023/04/02 01:57:32;;;;;;;;;;;;;;;;;;5005649;28;20309;-80
2023/04/02 02:00:21;;;;;;;;;;;;;;;;;;4997956;28;20374;-80
2023/04/02 02:03:08;;;;;;;;;;;;;;;;;;4995198;28;19921;-80
2023/04/02 02:05:55;;;;;;;;;;;;;;;;;;4998499;28;20428;-80
2023/04/02 02:08:41;;;;;;;;;;;;;;;;;;5003497;28;19936;-80
2023/04/02 02:11:28;;;;;;;;;;;;;;;;;;5005087;28;19918;-81
2023/04/02 02:14:14;;;;;;;;;;;;;;;;;;4989321;28;20390;-80
2023/04/02 02:17:01;;;;;;;;;;;;;;;;;;4987720;28;19930;-80
2023/04/02 02:19:47;;;;;;;;;;;;;;;;;;5001466;28;20341;-80
2023/04/02 02:22:34;;;;;;;;;;;;;;;;;;5000378;28;20403;-80
2023/04/02 02:25:20;;;;;;;;;;;;;;;;;;5005412;28;19933;-80
2023/04/02 02:28:07;;;;;;;;;;;;;;;;;;5004122;28;19928;-80
2023/04/02 02:30:53;;;;;;;;;;;;;;;;;;4988289;28;19914;-79
2023/04/02 02:33:40;;;;;;;;;;;;;;;;;;5004858;28;19931;-80
2023/04/02 02:36:27;;;;;;;;;;;;;;;;;;4986153;28;19922;-80
2023/04/02 02:39:13;;;;;;;;;;;;;;;;;;4990416;28;19917;-80
2023/04/02 02:42:00;;;;;;;;;;;;;;;;;;4999678;28;19921;-80
2023/04/02 02:44:46;;;;;;;;;;;;;;;;;;5000054;28;19921;-80
2023/04/02 02:47:33;;;;;;;;;;;;;;;;;;5003921;28;19927;-80
2023/04/02 02:50:19;;;;;;;;;;;;;;;;;;4998549;28;20278;-79
2023/04/02 02:53:06;;;;;;;;;;;;;;;;;;4992667;28;19924;-80
2023/04/02 02:55:52;;;;;;;;;;;;;;;;;;4997088;28;19925;-82
2023/04/02 02:58:39;;;;;;;;;;;;;;;;;;5001308;28;19917;-80
2023/04/02 03:01:26;;;;;;;;;;;;;;;;;;4999475;28;20554;-80
2023/04/02 03:04:12;;;;;;;;;;;;;;;;;;4999779;28;19917;-80
2023/04/02 03:06:59;;;;;;;;;;;;;;;;;;5006227;28;19917;-80
2023/04/02 03:09:45;;;;;;;;;;;;;;;;;;4998610;28;19929;-80
2023/04/02 03:12:32;;;;;;;;;;;;;;;;;;5004872;28;20487;-79
2023/04/02 03:15:19;;;;;;;;;;;;;;;;;;5003109;28;19948;-79
2023/04/02 03:18:05;;;;;;;;;;;;;;;;;;5002314;28;19914;-80
2023/04/02 03:20:51;;;;;;;;;;;;;;;;;;5004279;28;20340;-80
2023/04/02 03:23:38;;;;;;;;;;;;;;;;;;5004247;28;19913;-80
2023/04/02 03:26:25;;;;;;;;;;;;;;;;;;4995170;28;19918;-80
2023/04/02 03:29:11;;;;;;;;;;;;;;;;;;4991202;28;19929;-79
2023/04/02 03:31:58;;;;;;;;;;;;;;;;;;5004692;28;19943;-79
2023/04/02 03:34:44;;;;;;;;;;;;;;;;;;5005615;28;19914;-78
2023/04/02 03:37:31;;;;;;;;;;;;;;;;;;4993535;28;20328;-79
2023/04/02 03:40:17;;;;;;;;;;;;;;;;;;4999978;28;19922;-81
2023/04/02 03:43:05;;;;;;;;;;;;;;;;;;4997971;28;19917;-80
2023/04/02 03:45:51;;;;;;;;;;;;;;;;;;5004000;28;19929;-83
2023/04/02 03:48:38;;;;;;;;;;;;;;;;;;5004016;28;19928;-81
2023/04/02 03:51:24;;;;;;;;;;;;;;;;;;5003113;28;19917;-80
2023/04/02 03:54:11;;;;;;;;;;;;;;;;;;5008222;28;19932;-81
2023/04/02 03:56:57;;;;;;;;;;;;;;;;;;4996941;28;20378;-81
2023/04/02 03:59:44;;;;;;;;;;;;;;;;;;4990352;28;19918;-80
2023/04/02 04:02:30;;;;;;;;;;;;;;;;;;5001773;28;19917;-80
2023/04/02 04:05:17;;;;;;;;;;;;;;;;;;5003110;28;19924;-80
2023/04/02 04:08:03;;;;;;;;;;;;;;;;;;4997352;28;19929;-80
2023/04/02 04:10:50;;;;;;;;;;;;;;;;;;5001167;28;19917;-80
2023/04/02 04:13:36;;;;;;;;;;;;;;;;;;4999570;28;19918;-80
2023/04/02 04:16:23;;;;;;;;;;;;;;;;;;5006507;28;20382;-81
2023/04/02 04:19:09;;;;;;;;;;;;;;;;;;5006834;28;19925;-81
2023/04/02 04:21:56;;;;;;;;;;;;;;;;;;5006565;28;20293;-81
2023/04/02 04:24:44;;;;;;;;;;;;;;;;;;5003495;28;20381;-81
2023/04/02 04:27:34;;;;;;;;;;;;;;;;;;5005444;28;20369;-80
2023/04/02 04:30:21;;;;;;;;;;;;;;;;;;5005883;28;19925;-80
2023/04/02 04:33:09;;;;;;;;;;;;;;;;;;5007875;28;19913;-80
2023/04/02 04:35:56;;;;;;;;;;;;;;;;;;5004512;28;19922;-81
2023/04/02 04:38:43;;;;;;;;;;;;;;;;;;5005726;28;19920;-80
2023/04/02 04:41:29;;;;;;;;;;;;;;;;;;5003737;28;19917;-80
2023/04/02 04:44:16;;;;;;;;;;;;;;;;;;5007803;28;19924;-80
2023/04/02 04:47:02;;;;;;;;;;;;;;;;;;4988817;28;19921;-77
2023/04/02 04:49:49;;;;;;;;;;;;;;;;;;5004481;28;19933;-81
2023/04/02 04:52:35;;;;;;;;;;;;;;;;;;5000415;28;19923;-80
2023/04/02 04:55:22;;;;;;;;;;;;;;;;;;4995414;28;19914;-81
2023/04/02 04:58:08;;;;;;;;;;;;;;;;;;5006290;28;19925;-80
2023/04/02 05:00:55;;;;;;;;;;;;;;;;;;4988043;28;19918;-78
2023/04/02 05:03:41;;;;;;;;;;;;;;;;;;5005581;28;20380;-78
2023/04/02 05:06:28;;;;;;;;;;;;;;;;;;5004082;28;19932;-78
2023/04/02 05:09:14;;;;;;;;;;;;;;;;;;5003266;28;19926;-77
2023/04/02 05:12:01;;;;;;;;;;;;;;;;;;4994074;28;19947;-78
2023/04/02 05:14:47;;;;;;;;;;;;;;;;;;4998069;28;19929;-79
2023/04/02 05:17:34;;;;;;;;;;;;;;;;;;5006302;28;19918;-79
2023/04/02 05:20:21;;;;;;;;;;;;;;;;;;5004462;28;19922;-78
2023/04/02 05:23:07;;;;;;;;;;;;;;;;;;4998156;28;20289;-78
2023/04/02 05:25:54;;;;;;;;;;;;;;;;;;4997285;28;19924;-78
2023/04/02 05:28:41;;;;;;;;;;;;;;;;;;5005349;28;19922;-78
2023/04/02 05:31:27;;;;;;;;;;;;;;;;;;5004995;28;20028;-77
2023/04/02 05:34:14;;;;;;;;;;;;;;;;;;4994375;28;19915;-78
2023/04/02 05:37:00;;;;;;;;;;;;;;;;;;5002947;28;19924;-78
2023/04/02 05:39:47;;;;;;;;;;;;;;;;;;5004931;28;19921;-78
2023/04/02 05:42:33;;;;;;;;;;;;;;;;;;5004449;28;19914;-79
2023/04/02 05:45:20;;;;;;;;;;;;;;;;;;4988858;28;19923;-78
2023/04/02 05:48:06;;;;;;;;;;;;;;;;;;5000307;28;19933;-79
2023/04/02 05:50:53;;;;;;;;;;;;;;;;;;5006782;28;20573;-80
2023/04/02 05:53:40;;;;;;;;;;;;;;;;;;5003334;28;19918;-79
2023/04/02 05:56:26;;;;;;;;;;;;;;;;;;4990728;28;19922;-78
2023/04/02 05:59:13;;;;;;;;;;;;;;;;;;5006164;28;20277;-77
2023/04/02 06:02:02;;;;;;;;;;;;;;;;;;4997552;28;19929;-78
2023/04/02 06:04:48;;;;;;;;;;;;;;;;;;4999224;28;19917;-78
2023/04/02 06:07:35;;;;;;;;;;;;;;;;;;4988032;28;19959;-78
2023/04/02 06:10:22;;;;;;;;;;;;;;;;;;5003131;28;19925;-79
2023/04/02 06:13:08;;;;;;;;;;;;;;;;;;4997123;28;20312;-78
2023/04/02 06:15:55;;;;;;;;;;;;;;;;;;5003565;28;19929;-78
2023/04/02 06:18:41;;;;;;;;;;;;;;;;;;4992953;28;19948;-79
2023/04/02 06:21:28;;;;;;;;;;;;;;;;;;4998339;28;20024;-79
2023/04/02 06:24:14;;;;;;;;;;;;;;;;;;4997615;28;19924;-78
2023/04/02 06:27:01;;;;;;;;;;;;;;;;;;4994244;28;19937;-79
2023/04/02 06:29:50;;;;;;;;;;;;;;;;;;5003073;28;20298;-79
2023/04/02 06:32:37;;;;;;;;;;;;;;;;;;5002106;28;19922;-79
2023/04/02 06:35:23;;;;;;;;;;;;;;;;;;5010931;28;19925;-79
2023/04/02 06:38:10;;;;;;;;;;;;;;;;;;5004029;28;19927;-82
2023/04/02 06:40:56;;;;;;;;;;;;;;;;;;5004362;28;19928;-78
2023/04/02 06:43:43;;;;;;;;;;;;;;;;;;4997499;28;19925;-78
2023/04/02 06:46:29;;;;;;;;;;;;;;;;;;5000992;28;19926;-78
2023/04/02 06:49:16;;;;;;;;;;;;;;;;;;4997047;28;20388;-79
2023/04/02 06:52:02;;;;;;;;;;;;;;;;;;5003578;28;19918;-79
2023/04/02 06:54:49;;;;;;;;;;;;;;;;;;4980898;28;19918;-78
2023/04/02 06:57:35;;;;;;;;;;;;;;;;;;4997296;28;20293;-77
2023/04/02 07:00:22;;;;;;;;;;;;;;;;;;4997684;28;20400;-77
2023/04/02 07:03:08;;;;;;;;;;;;;;;;;;5003097;28;19920;-79
2023/04/02 07:05:55;;;;;;;;;;;;;;;;;;4995492;28;19918;-80
2023/04/02 07:08:41;;;;;;;;;;;;;;;;;;4995311;28;19936;-77
2023/04/02 07:11:27;;;;;;;;;;;;;;;;;;4994871;28;20293;-79
2023/04/02 07:14:14;;;;;;;;;;;;;;;;;;5001820;28;19932;-79
2023/04/02 07:17:00;;;;;;;;;;;;;;;;;;4994601;28;20165;-78
2023/04/02 07:19:50;;;;;;;;;;;;;;;;;;5003912;28;19917;-80
2023/04/02 07:22:36;;;;;;;;;;;;;;;;;;5005169;28;19922;-80
2023/04/02 07:25:23;;;;;;;;;;;;;;;;;;5004051;28;19921;-77
2023/04/02 07:28:09;;;;;;;;;;;;;;;;;;4997276;28;20255;-78
2023/04/02 07:30:56;;;;;;;;;;;;;;;;;;4987099;28;19922;-78
2023/04/02 07:33:42;;;;;;;;;;;;;;;;;;5003087;28;19921;-79
2023/04/02 07:36:29;;;;;;;;;;;;;;;;;;5000268;28;20024;-76
2023/04/02 07:39:16;;;;;;;;;;;;;;;;;;4996545;28;20497;-78
2023/04/02 07:42:02;;;;;;;;;;;;;;;;;;4995549;28;20610;-77
2023/04/02 07:44:50;;;;;;;;;;;;;;;;;;5002367;28;19921;-77
2023/04/02 07:47:36;;;;;;;;;;;;;;;;;;4998878;28;19928;-78
2023/04/02 07:50:23;;;;;;;;;;;;;;;;;;4999033;28;21046;-79
2023/04/02 07:53:09;;;;;;;;;;;;;;;;;;4985729;28;20380;-78
2023/04/02 07:55:55;;;;;;;;;;;;;;;;;;5000787;28;19921;-80
2023/04/02 07:58:42;;;;;;;;;;;;;;;;;;5003311;28;19922;-80
2023/04/02 08:01:33;;;;;;;;;;;;;;;;;;5000644;28;19926;-80
2023/04/02 08:04:20;;;;;;;;;;;;;;;;;;4999694;28;20685;-80
2023/04/02 08:07:07;;;;;;;;;;;;;;;;;;5000451;28;19922;-79
2023/04/02 08:09:53;;;;;;;;;;;;;;;;;;5001378;28;19933;-79
2023/04/02 08:12:40;;;;;;;;;;;;;;;;;;5001082;28;19925;-78
2023/04/02 08:15:26;;;;;;;;;;;;;;;;;;4998487;28;19929;-78
2023/04/02 08:18:13;;;;;;;;;;;;;;;;;;4999719;28;19948;-78
2023/04/02 08:21:00;;;;;;;;;;;;;;;;;;4997835;28;19918;-78
2023/04/02 08:23:46;;;;;;;;;;;;;;;;;;4998865;28;19921;-79
2023/04/02 08:26:33;;;;;;;;;;;;;;;;;;5002885;28;19925;-79
2023/04/02 08:29:19;;;;;;;;;;;;;;;;;;5004470;28;19936;-76
2023/04/02 08:32:06;;;;;;;;;;;;;;;;;;5001425;28;20297;-78
2023/04/02 08:34:52;;;;;;;;;;;;;;;;;;5002871;28;19925;-77
2023/04/02 08:37:39;;;;;;;;;;;;;;;;;;4998592;28;20016;-76
2023/04/02 08:40:26;;;;;;;;;;;;;;;;;;5000911;28;19923;-77
2023/04/02 08:43:12;;;;;;;;;;;;;;;;;;5002069;28;19921;-82
2023/04/02 08:45:59;;;;;;;;;;;;;;;;;;5002451;28;19918;-78
2023/04/02 08:48:45;;;;;;;;;;;;;;;;;;5000498;28;20399;-78
2023/04/02 08:51:32;;;;;;;;;;;;;;;;;;5002877;28;19921;-78
2023/04/02 08:54:18;;;;;;;;;;;;;;;;;;4999838;28;19922;-78
2023/04/02 08:57:05;;;;;;;;;;;;;;;;;;5002196;28;19926;-78
2023/04/02 08:59:51;;;;;;;;;;;;;;;;;;5004566;28;19924;-78
2023/04/02 09:02:38;;;;;;;;;;;;;;;;;;5000875;28;19951;-78
2023/04/02 09:05:24;;;;;;;;;;;;;;;;;;5002225;28;19924;-78
2023/04/02 09:08:11;;;;;;;;;;;;;;;;;;5001462;28;19921;-78
2023/04/02 09:10:57;;;;;;;;;;;;;;;;;;5000553;28;19941;-78
2023/04/02 09:13:45;;;;;;;;;;;;;;;;;;5000651;28;19939;-79
2023/04/02 09:16:31;;;;;;;;;;;;;;;;;;5003094;28;19936;-79
2023/04/02 09:19:18;;;;;;;;;;;;;;;;;;4998394;28;19932;-77
2023/04/02 09:22:05;;;;;;;;;;;;;;;;;;4998353;28;19918;-77
2023/04/02 09:24:51;;;;;;;;;;;;;;;;;;4999298;28;20660;-76
2023/04/02 09:27:38;;;;;;;;;;;;;;;;;;4998968;28;19922;-76
2023/04/02 09:30:25;;;;;;;;;;;;;;;;;;4999063;28;19933;-78
2023/04/02 09:33:12;;;;;;;;;;;;;;;;;;4997247;28;19931;-77
2023/04/02 09:35:59;;;;;;;;;;;;;;;;;;4998522;28;20485;-77
2023/04/02 09:38:45;;;;;;;;;;;;;;;;;;4999914;28;19972;-78
2023/04/02 09:41:32;;;;;;;;;;;;;;;;;;4999350;28;19917;-79
2023/04/02 09:44:19;;;;;;;;;;;;;;;;;;4998591;28;19925;-78
2023/04/02 09:47:06;;;;;;;;;;;;;;;;;;4998718;28;19936;-78
2023/04/02 09:49:52;;;;;;;;;;;;;;;;;;4998179;28;19933;-81
2023/04/02 09:52:39;;;;;;;;;;;;;;;;;;4998419;28;19918;-78
2023/04/02 09:55:27;;;;;;;;;;;;;;;;;;5001152;28;19943;-78
2023/04/02 09:58:14;;;;;;;;;;;;;;;;;;4999344;28;19979;-77
2023/04/02 10:01:00;;;;;;;;;;;;;;;;;;5000020;28;19917;-78
2023/04/02 10:03:47;;;;;;;;;;;;;;;;;;4996980;28;19928;-77
2023/04/02 10:06:34;;;;;;;;;;;;;;;;;;4970512;28;19918;-78
2023/04/02 10:09:20;;;;;;;;;;;;;;;;;;4988130;28;20401;-78
2023/04/02 10:12:07;;;;;;;;;;;;;;;;;;4998141;28;19924;-78
2023/04/02 10:14:54;;;;;;;;;;;;;;;;;;5001856;28;19937;-78
2023/04/02 10:17:40;;;;;;;;;;;;;;;;;;5002719;28;19927;-78
2023/04/02 10:20:27;;;;;;;;;;;;;;;;;;4998286;28;19929;-78
2023/04/02 10:23:13;;;;;;;;;;;;;;;;;;4995772;28;19951;-82
2023/04/02 10:26:00;;;;;;;;;;;;;;;;;;4985077;28;19929;-81
2023/04/02 10:28:46;;;;;;;;;;;;;;;;;;4997949;28;19929;-82
2023/04/02 10:31:33;;;;;;;;;;;;;;;;;;4983451;28;19924;-82
2023/04/02 10:34:20;;;;;;;;;;;;;;;;;;4994427;28;19917;-81
2023/04/02 10:37:06;;;;;;;;;;;;;;;;;;5000625;28;19917;-81
2023/04/02 10:39:53;;;;;;;;;;;;;;;;;;4999651;28;19925;-81
2023/04/02 10:42:39;;;;;;;;;;;;;;;;;;4995705;28;19928;-79
2023/04/02 10:45:25;;;;;;;;;;;;;;;;;;4993643;28;19918;-86
2023/04/02 10:48:12;;;;;;;;;;;;;;;;;;4998521;28;19936;-85
2023/04/02 10:50:59;;;;;;;;;;;;;;;;;;4999190;28;20427;-84
2023/04/02 10:53:45;;;;;;;;;;;;;;;;;;5001112;28;19924;-83
2023/04/02 10:56:32;;;;;;;;;;;;;;;;;;5003051;28;19924;-84
2023/04/02 10:59:18;;;;;;;;;;;;;;;;;;5002046;28;19932;-83
2023/04/02 11:02:05;;;;;;;;;;;;;;;;;;5000726;28;19921;-85
2023/04/02 11:04:51;;;;;;;;;;;;;;;;;;5001905;28;20291;-84
2023/04/02 11:07:38;;;;;;;;;;;;;;;;;;5003071;28;19921;-85
2023/04/02 11:10:24;;;;;;;;;;;;;;;;;;5002619;28;19929;-84
2023/04/02 11:13:11;;;;;;;;;;;;;;;;;;4999554;28;19921;-83
2023/04/02 11:15:57;;;;;;;;;;;;;;;;;;5001092;28;19937;-83
2023/04/02 11:18:44;;;;;;;;;;;;;;;;;;5001951;28;19917;-84
2023/04/02 11:21:32;;;;;;;;;;;;;;;;;;5002134;28;24348;-81
2023/04/02 11:24:19;;;;;;;;;;;;;;;;;;5002755;28;19917;-83
2023/04/02 11:27:05;;;;;;;;;;;;;;;;;;5000829;28;19937;-81
2023/04/02 11:29:52;;;;;;;;;;;;;;;;;;5002147;28;19925;-82
2023/04/02 11:32:39;;;;;;;;;;;;;;;;;;5000624;28;19925;-83
2023/04/02 11:35:25;;;;;;;;;;;;;;;;;;4998035;28;19917;-81
2023/04/02 11:38:12;;;;;;;;;;;;;;;;;;4999446;28;19925;-82
2023/04/02 11:40:58;;;;;;;;;;;;;;;;;;5004115;28;20421;-81
2023/04/02 11:43:45;;;;;;;;;;;;;;;;;;4998772;28;19922;-82
2023/04/02 11:46:31;;;;;;;;;;;;;;;;;;5004561;28;19924;-82
2023/04/02 11:49:18;;;;;;;;;;;;;;;;;;4999692;28;19932;-82
2023/04/02 11:52:04;;;;;;;;;;;;;;;;;;4997347;28;20586;-82
2023/04/02 11:54:51;;;;;;;;;;;;;;;;;;5000050;28;19927;-82
2023/04/02 11:57:37;;;;;;;;;;;;;;;;;;4999876;28;20456;-83
2023/04/02 12:00:24;;;;;;;;;;;;;;;;;;5001296;28;19928;-83
2023/04/02 12:03:12;;;;;;;;;;;;;;;;;;4999101;28;19922;-82
2023/04/02 12:05:58;;;;;;;;;;;;;;;;;;5002449;28;21032;-83
2023/04/02 12:08:46;;;;;;;;;;;;;;;;;;5002568;28;19936;-82
2023/04/02 12:11:33;;;;;;;;;;;;;;;;;;4999647;28;19959;-83
2023/04/02 12:14:20;;;;;;;;;;;;;;;;;;5000755;28;19926;-83
2023/04/02 12:17:06;;;;;;;;;;;;;;;;;;5004207;28;19932;-83
2023/04/02 12:19:52;;;;;;;;;;;;;;;;;;5002146;28;19928;-83
2023/04/02 12:22:39;;;;;;;;;;;;;;;;;;4997323;28;19921;-80
2023/04/02 12:25:28;;;;;;;;;;;;;;;;;;5001808;28;19929;-80
2023/04/02 12:28:16;;;;;;;;;;;;;;;;;;5000447;28;19929;-83
2023/04/02 12:31:03;;;;;;;;;;;;;;;;;;5000626;28;19930;-81
2023/04/02 12:33:49;;;;;;;;;;;;;;;;;;4998870;28;19926;-80
2023/04/02 12:36:36;;;;;;;;;;;;;;;;;;5003478;28;20413;-84
2023/04/02 12:39:22;;;;;;;;;;;;;;;;;;5002649;28;19929;-78
2023/04/02 12:42:09;;;;;;;;;;;;;;;;;;4999959;28;19918;-80
2023/04/02 12:44:56;;;;;;;;;;;;;;;;;;5001156;28;19948;-81
2023/04/02 12:47:42;;;;;;;;;;;;;;;;;;5001277;28;19928;-81
2023/04/02 12:50:29;;;;;;;;;;;;;;;;;;5002337;28;20405;-81
2023/04/02 12:53:15;;;;;;;;;;;;;;;;;;4998677;28;19928;-83
2023/04/02 12:56:02;;;;;;;;;;;;;;;;;;5000580;28;19921;-82
2023/04/02 12:58:48;;;;;;;;;;;;;;;;;;4993773;28;19932;-82
2023/04/02 13:01:35;;;;;;;;;;;;;;;;;;5001529;28;19929;-82
2023/04/02 13:04:21;;;;;;;;;;;;;;;;;;4999965;28;19956;-82
2023/04/02 13:07:08;;;;;;;;;;;;;;;;;;4985549;28;19933;-82
2023/04/02 13:09:54;;;;;;;;;;;;;;;;;;5000390;28;19945;-82
2023/04/02 13:12:41;;;;;;;;;;;;;;;;;;4989465;28;20008;-80
2023/04/02 13:15:27;;;;;;;;;;;;;;;;;;4998776;28;19972;-82
2023/04/02 13:18:14;;;;;;;;;;;;;;;;;;4998836;28;20000;-81
2023/04/02 13:21:01;;;;;;;;;;;;;;;;;;5003723;28;19921;-81
2023/04/02 13:23:48;;;;;;;;;;;;;;;;;;5000352;28;20400;-81
2023/04/02 13:26:34;;;;;;;;;;;;;;;;;;5003883;28;19921;-81
2023/04/02 13:29:21;;;;;;;;;;;;;;;;;;5001773;28;20369;-81
2023/04/02 13:32:07;;;;;;;;;;;;;;;;;;5000003;28;19917;-80
2023/04/02 13:34:54;;;;;;;;;;;;;;;;;;5001947;28;19928;-81
2023/04/02 13:37:40;;;;;;;;;;;;;;;;;;4988651;28;19927;-80
2023/04/02 13:40:27;;;;;;;;;;;;;;;;;;5004084;28;20393;-80
2023/04/02 13:43:13;;;;;;;;;;;;;;;;;;4992244;28;19929;-80
2023/04/02 13:46:00;;;;;;;;;;;;;;;;;;5000678;28;20081;-80
2023/04/02 13:48:46;;;;;;;;;;;;;;;;;;5001660;28;20363;-80
2023/04/02 13:51:33;;;;;;;;;;;;;;;;;;4996505;28;20412;-80
2023/04/02 13:54:19;;;;;;;;;;;;;;;;;;5003924;28;19925;-79
2023/04/02 13:57:06;;;;;;;;;;;;;;;;;;5003591;28;20808;-81
2023/04/02 13:59:52;;;;;;;;;;;;;;;;;;4998523;28;19968;-81
2023/04/02 14:02:42;;;;;;;;;;;;;;;;;;5000579;28;20037;-81
2023/04/02 14:05:28;;;;;;;;;;;;;;;;;;4998776;28;19922;-82
2023/04/02 14:08:15;;;;;;;;;;;;;;;;;;4997304;28;19921;-81
2023/04/02 14:11:02;;;;;;;;;;;;;;;;;;4997575;28;19929;-79
2023/04/02 14:13:48;;;;;;;;;;;;;;;;;;5000170;28;19922;-81
2023/04/02 14:16:35;;;;;;;;;;;;;;;;;;4996810;28;19934;-80
2023/04/02 14:19:22;;;;;;;;;;;;;;;;;;4997469;28;19928;-80
2023/04/02 14:22:08;;;;;;;;;;;;;;;;;;5000393;28;19921;-82
2023/04/02 14:24:57;;;;;;;;;;;;;;;;;;5001280;28;19924;-81
2023/04/02 14:27:44;;;;;;;;;;;;;;;;;;4997146;28;19921;-82
2023/04/02 14:30:30;;;;;;;;;;;;;;;;;;5000024;28;19943;-81
2023/04/02 14:33:17;;;;;;;;;;;;;;;;;;5001129;28;20024;-80
2023/04/02 14:36:03;;;;;;;;;;;;;;;;;;4993791;28;19925;-80
2023/04/02 14:38:50;;;;;;;;;;;;;;;;;;5003228;28;19922;-81
2023/04/02 14:41:36;;;;;;;;;;;;;;;;;;4996010;28;20472;-81
2023/04/02 14:44:23;;;;;;;;;;;;;;;;;;4987267;28;20012;-80
2023/04/02 14:47:09;;;;;;;;;;;;;;;;;;4998145;28;19917;-81
2023/04/02 14:49:56;;;;;;;;;;;;;;;;;;5002747;28;19930;-80
2023/04/02 14:52:43;;;;;;;;;;;;;;;;;;4997353;28;19948;-81
2023/04/02 14:55:30;;;;;;;;;;;;;;;;;;4999596;28;20325;-81
2023/04/02 14:58:16;;;;;;;;;;;;;;;;;;5000647;28;19955;-80
2023/04/02 15:01:03;;;;;;;;;;;;;;;;;;4998169;28;19929;-81
2023/04/02 15:03:49;;;;;;;;;;;;;;;;;;4998475;28;19918;-80
2023/04/02 15:06:36;;;;;;;;;;;;;;;;;;4999616;28;20282;-80
2023/04/02 15:09:22;;;;;;;;;;;;;;;;;;4998154;28;19928;-82
2023/04/02 15:12:09;;;;;;;;;;;;;;;;;;4998810;28;19918;-81
2023/04/02 15:14:56;;;;;;;;;;;;;;;;;;4999615;28;19948;-84
2023/04/02 15:17:42;;;;;;;;;;;;;;;;;;4995662;28;19917;-83
2023/04/02 15:20:29;;;;;;;;;;;;;;;;;;4996452;28;19975;-81
2023/04/02 15:23:16;;;;;;;;;;;;;;;;;;4996606;28;20526;-80
2023/04/02 15:26:02;;;;;;;;;;;;;;;;;;5000459;28;19929;-81
2023/04/02 15:28:49;;;;;;;;;;;;;;;;;;4997090;28;19940;-82
2023/04/02 15:31:36;;;;;;;;;;;;;;;;;;4996905;28;19929;-82
2023/04/02 15:34:22;;;;;;;;;;;;;;;;;;4995221;28;20282;-82
2023/04/02 15:37:11;;;;;;;;;;;;;;;;;;4996375;28;19917;-82
2023/04/02 15:39:57;;;;;;;;;;;;;;;;;;4998028;28;19924;-83
2023/04/02 15:42:44;;;;;;;;;;;;;;;;;;5000268;28;19952;-83
2023/04/02 15:45:30;;;;;;;;;;;;;;;;;;4999295;28;19927;-83
2023/04/02 15:48:17;;;;;;;;;;;;;;;;;;5002302;28;19928;-82
2023/04/02 15:51:03;;;;;;;;;;;;;;;;;;5002516;28;19929;-81
2023/04/02 15:53:51;;;;;;;;;;;;;;;;;;4986078;28;19922;-81
2023/04/02 15:56:37;;;;;;;;;;;;;;;;;;5002348;28;19928;-80
2023/04/02 15:59:24;;;;;;;;;;;;;;;;;;5002123;28;19925;-82
2023/04/02 16:02:10;;;;;;;;;;;;;;;;;;5010927;28;19917;-83
2023/04/02 16:04:57;;;;;;;;;;;;;;;;;;4986256;28;19921;-82
2023/04/02 16:07:43;;;;;;;;;;;;;;;;;;5002817;28;20626;-83
2023/04/02 16:10:30;;;;;;;;;;;;;;;;;;5002974;28;19940;-82
2023/04/02 16:13:16;;;;;;;;;;;;;;;;;;5000212;28;19922;-82
2023/04/02 16:16:03;;;;;;;;;;;;;;;;;;4999261;28;20016;-82
2023/04/02 16:18:50;;;;;;;;;;;;;;;;;;5001068;28;19922;-84
2023/04/02 16:21:37;;;;;;;;;;;;;;;;;;4997030;28;20384;-82
2023/04/02 16:24:23;;;;;;;;;;;;;;;;;;5000246;28;19963;-82
2023/04/02 16:27:13;;;;;;;;;;;;;;;;;;5001329;28;19917;-81
2023/04/02 16:30:00;;;;;;;;;;;;;;;;;;5001877;28;19937;-82
2023/04/02 16:32:46;;;;;;;;;;;;;;;;;;5000442;28;19918;-82
2023/04/02 16:35:33;;;;;;;;;;;;;;;;;;4997675;28;19921;-81
2023/04/02 16:38:19;;;;;;;;;;;;;;;;;;4999376;28;19940;-80
2023/04/02 16:41:06;;;;;;;;;;;;;;;;;;4999919;28;19928;-80
2023/04/02 16:43:52;;;;;;;;;;;;;;;;;;5002153;28;19929;-82
2023/04/02 16:46:39;;;;;;;;;;;;;;;;;;5001331;28;19931;-83
2023/04/02 16:49:25;;;;;;;;;;;;;;;;;;4984219;28;19929;-82
2023/04/02 16:52:12;;;;;;;;;;;;;;;;;;4999478;28;19929;-82
2023/04/02 16:54:58;;;;;;;;;;;;;;;;;;5001703;28;19928;-81
2023/04/02 16:57:45;;;;;;;;;;;;;;;;;;4999581;28;19926;-82
2023/04/02 17:00:31;;;;;;;;;;;;;;;;;;4998054;28;19926;-81
2023/04/02 17:03:18;;;;;;;;;;;;;;;;;;4999223;28;19921;-81
2023/04/02 17:06:04;;;;;;;;;;;;;;;;;;5000494;28;19926;-81
2023/04/02 17:08:51;;;;;;;;;;;;;;;;;;5001347;28;19922;-82
2023/04/02 17:11:37;;;;;;;;;;;;;;;;;;5000041;28;19936;-80
2023/04/02 17:14:24;;;;;;;;;;;;;;;;;;4997505;28;19933;-82
2023/04/02 17:17:11;;;;;;;;;;;;;;;;;;4973291;28;20245;-82
2023/04/02 17:19:57;;;;;;;;;;;;;;;;;;4995980;28;19922;-81
2023/04/02 17:22:44;;;;;;;;;;;;;;;;;;4999502;28;19925;-82
2023/04/02 17:25:30;;;;;;;;;;;;;;;;;;5000626;28;19921;-83
2023/04/02 17:28:17;;;;;;;;;;;;;;;;;;5001047;28;19918;-87
2023/04/02 17:31:04;;;;;;;;;;;;;;;;;;5001520;28;19929;-79
2023/04/02 17:33:50;;;;;;;;;;;;;;;;;;5003941;28;19917;-86
2023/04/02 17:36:37;;;;;;;;;;;;;;;;;;5002248;28;19925;-86
2023/04/02 17:39:24;;;;;;;;;;;;;;;;;;5003829;28;19917;-87
2023/04/02 17:42:10;;;;;;;;;;;;;;;;;;4999787;28;19928;-86
2023/04/02 17:44:57;;;;;;;;;;;;;;;;;;5001409;28;20439;-86
2023/04/02 17:47:44;;;;;;;;;;;;;;;;;;4997408;28;19917;-85
2023/04/02 17:50:30;;;;;;;;;;;;;;;;;;4999741;28;19929;-86
2023/04/02 17:53:18;;;;;;;;;;;;;;;;;;4997775;28;19925;-87
2023/04/02 17:56:04;;;;;;;;;;;;;;;;;;4999592;28;19922;-85
2023/04/02 17:58:50;;;;;;;;;;;;;;;;;;4999438;28;19917;-90
2023/04/02 18:01:37;;;;;;;;;;;;;;;;;;5002354;28;20408;-88
2023/04/02 18:04:24;;;;;;;;;;;;;;;;;;4999469;28;20943;-83
2023/04/02 18:07:10;;;;;;;;;;;;;;;;;;5001274;28;19917;-84
2023/04/02 18:09:57;;;;;;;;;;;;;;;;;;5003224;28;20549;-83
2023/04/02 18:12:43;;;;;;;;;;;;;;;;;;5001668;28;19921;-83
2023/04/02 18:15:30;;;;;;;;;;;;;;;;;;5001074;28;19967;-82
2023/04/02 18:18:16;;;;;;;;;;;;;;;;;;4998207;28;19929;-81
2023/04/02 18:21:03;;;;;;;;;;;;;;;;;;4999991;28;19932;-81
2023/04/02 18:23:49;;;;;;;;;;;;;;;;;;4998504;28;19921;-80
2023/04/02 18:26:36;;;;;;;;;;;;;;;;;;4999330;28;20335;-79
2023/04/02 18:29:23;;;;;;;;;;;;;;;;;;4999135;28;19945;-81
2023/04/02 18:32:09;;;;;;;;;;;;;;;;;;4994903;28;19937;-78
2023/04/02 18:34:56;;;;;;;;;;;;;;;;;;4995963;28;19918;-79
2023/04/02 18:37:43;;;;;;;;;;;;;;;;;;4996103;28;19926;-81
2023/04/02 18:40:30;;;;;;;;;;;;;;;;;;4996488;28;20392;-80
2023/04/02 18:43:17;;;;;;;;;;;;;;;;;;4997090;28;20379;-82
2023/04/02 18:46:04;;;;;;;;;;;;;;;;;;4994446;28;19917;-80
2023/04/02 18:48:50;;;;;;;;;;;;;;;;;;4998226;28;19921;-80
2023/04/02 18:51:37;;;;;;;;;;;;;;;;;;4998394;28;20297;-80
2023/04/02 18:54:23;;;;;;;;;;;;;;;;;;4998027;28;19917;-81
2023/04/02 18:57:10;;;;;;;;;;;;;;;;;;5002063;28;19924;-80